sensor_id;sensor_type;location;lat;lon;timestamp;P1;durP1;ratioP1;P2;durP2;ratioP2
31638;SDS011;18248;51.522;7.020;2023-04-01T00:02:04;7.82;;;1.55;;
31638;SDS011;18248;51.522;7.020;2023-04-01T00:05:03;7.20;;;1.60;;
31638;SDS011;18248;51.522;7.020;2023-04-01T00:08:03;14.82;;;1.63;;
31638;SDS011;18248;51.522;7.020;2023-04-01T00:11:02;6.97;;;1.20;;
31638;SDS011;18248;51.522;7.020;2023-04-01T00:14:00;7.00;;;1.33;;
31638;SDS011;18248;51.522;7.020;2023-04-01T00:16:59;8.48;;;1.27;;
31638;SDS011;18248;51.522;7.020;2023-04-01T00:19:59;6.30;;;1.52;;
31638;SDS011;18248;51.522;7.020;2023-04-01T00:22:58;5.43;;;1.10;;
31638;SDS011;18248;51.522;7.020;2023-04-01T00:25:58;8.25;;;1.50;;
31638;SDS011;18248;51.522;7.020;2023-04-01T00:28:58;9.95;;;1.90;;
31638;SDS011;18248;51.522;7.020;2023-04-01T00:31:57;8.35;;;1.63;;
31638;SDS011;18248;51.522;7.020;2023-04-01T00:34:56;10.07;;;1.65;;
31638;SDS011;18248;51.522;7.020;2023-04-01T00:37:56;5.38;;;1.17;;
31638;SDS011;18248;51.522;7.020;2023-04-01T00:40:56;5.15;;;1.30;;
31638;SDS011;18248;51.522;7.020;2023-04-01T00:47:21;7.05;;;1.10;;
31638;SDS011;18248;51.522;7.020;2023-04-01T00:50:22;7.97;;;1.25;;
31638;SDS011;18248;51.522;7.020;2023-04-01T00:53:22;8.18;;;1.45;;
31638;SDS011;18248;51.522;7.020;2023-04-01T00:56:22;7.30;;;1.38;;
31638;SDS011;18248;51.522;7.020;2023-04-01T00:59:33;8.93;;;1.17;;
31638;SDS011;18248;51.522;7.020;2023-04-01T01:02:35;3.85;;;1.00;;
31638;SDS011;18248;51.522;7.020;2023-04-01T01:05:42;7.13;;;1.00;;
31638;SDS011;18248;51.522;7.020;2023-04-01T01:09:11;4.25;;;1.00;;
31638;SDS011;18248;51.522;7.020;2023-04-01T01:12:24;5.70;;;0.80;;
31638;SDS011;18248;51.522;7.020;2023-04-01T01:18:49;5.13;;;0.98;;
31638;SDS011;18248;51.522;7.020;2023-04-01T01:22:17;3.60;;;0.93;;
31638;SDS011;18248;51.522;7.020;2023-04-01T01:25:55;5.20;;;0.95;;
31638;SDS011;18248;51.522;7.020;2023-04-01T01:32:55;5.38;;;1.00;;
31638;SDS011;18248;51.522;7.020;2023-04-01T01:35:59;6.03;;;0.73;;
31638;SDS011;18248;51.522;7.020;2023-04-01T01:39:04;6.22;;;0.85;;
31638;SDS011;18248;51.522;7.020;2023-04-01T01:42:06;3.28;;;0.80;;
31638;SDS011;18248;51.522;7.020;2023-04-01T01:45:09;5.82;;;0.90;;
31638;SDS011;18248;51.522;7.020;2023-04-01T01:48:09;4.53;;;0.90;;
31638;SDS011;18248;51.522;7.020;2023-04-01T01:51:09;7.05;;;1.13;;
31638;SDS011;18248;51.522;7.020;2023-04-01T01:54:11;3.28;;;0.68;;
31638;SDS011;18248;51.522;7.020;2023-04-01T01:57:14;6.60;;;0.82;;
31638;SDS011;18248;51.522;7.020;2023-04-01T02:00:14;5.82;;;1.08;;
31638;SDS011;18248;51.522;7.020;2023-04-01T02:03:14;2.42;;;0.77;;
31638;SDS011;18248;51.522;7.020;2023-04-01T02:06:16;4.10;;;0.80;;
31638;SDS011;18248;51.522;7.020;2023-04-01T02:09:18;4.73;;;1.10;;
31638;SDS011;18248;51.522;7.020;2023-04-01T02:12:17;4.80;;;0.70;;
31638;SDS011;18248;51.522;7.020;2023-04-01T02:15:20;4.93;;;0.82;;
31638;SDS011;18248;51.522;7.020;2023-04-01T02:18:19;4.18;;;0.80;;
31638;SDS011;18248;51.522;7.020;2023-04-01T02:21:18;6.88;;;0.90;;
31638;SDS011;18248;51.522;7.020;2023-04-01T02:24:20;3.70;;;0.90;;
31638;SDS011;18248;51.522;7.020;2023-04-01T02:27:21;3.33;;;0.82;;
31638;SDS011;18248;51.522;7.020;2023-04-01T02:30:20;6.15;;;1.00;;
31638;SDS011;18248;51.522;7.020;2023-04-01T02:33:19;5.07;;;1.05;;
31638;SDS011;18248;51.522;7.020;2023-04-01T02:36:19;2.47;;;0.90;;
31638;SDS011;18248;51.522;7.020;2023-04-01T02:39:18;5.10;;;0.63;;
31638;SDS011;18248;51.522;7.020;2023-04-01T02:42:17;4.32;;;1.13;;
31638;SDS011;18248;51.522;7.020;2023-04-01T02:45:17;3.40;;;0.70;;
31638;SDS011;18248;51.522;7.020;2023-04-01T02:48:16;1.58;;;0.73;;
31638;SDS011;18248;51.522;7.020;2023-04-01T02:51:14;6.15;;;0.95;;
31638;SDS011;18248;51.522;7.020;2023-04-01T02:54:13;5.05;;;1.02;;
31638;SDS011;18248;51.522;7.020;2023-04-01T02:57:11;3.08;;;0.70;;
31638;SDS011;18248;51.522;7.020;2023-04-01T03:00:10;6.63;;;1.00;;
31638;SDS011;18248;51.522;7.020;2023-04-01T03:03:09;3.10;;;1.00;;
31638;SDS011;18248;51.522;7.020;2023-04-01T03:06:09;7.03;;;1.42;;
31638;SDS011;18248;51.522;7.020;2023-04-01T03:09:09;8.10;;;1.20;;
31638;SDS011;18248;51.522;7.020;2023-04-01T03:12:08;3.00;;;0.88;;
31638;SDS011;18248;51.522;7.020;2023-04-01T03:15:08;3.10;;;1.00;;
31638;SDS011;18248;51.522;7.020;2023-04-01T03:18:09;2.85;;;0.88;;
31638;SDS011;18248;51.522;7.020;2023-04-01T03:21:14;2.60;;;0.90;;
31638;SDS011;18248;51.522;7.020;2023-04-01T03:24:17;3.13;;;0.90;;
31638;SDS011;18248;51.522;7.020;2023-04-01T03:27:15;2.53;;;0.80;;
31638;SDS011;18248;51.522;7.020;2023-04-01T03:30:14;5.65;;;1.00;;
31638;SDS011;18248;51.522;7.020;2023-04-01T03:33:14;1.73;;;0.93;;
31638;SDS011;18248;51.522;7.020;2023-04-01T03:36:13;3.53;;;1.27;;
31638;SDS011;18248;51.522;7.020;2023-04-01T03:39:13;2.50;;;1.10;;
31638;SDS011;18248;51.522;7.020;2023-04-01T03:42:11;2.05;;;1.27;;
31638;SDS011;18248;51.522;7.020;2023-04-01T03:45:10;4.32;;;2.03;;
31638;SDS011;18248;51.522;7.020;2023-04-01T03:48:09;6.28;;;3.42;;
31638;SDS011;18248;51.522;7.020;2023-04-01T03:51:08;9.40;;;4.85;;
31638;SDS011;18248;51.522;7.020;2023-04-01T03:54:08;6.60;;;3.00;;
31638;SDS011;18248;51.522;7.020;2023-04-01T03:57:07;7.13;;;3.03;;
31638;SDS011;18248;51.522;7.020;2023-04-01T04:00:06;6.75;;;2.30;;
31638;SDS011;18248;51.522;7.020;2023-04-01T04:03:06;9.32;;;2.88;;
31638;SDS011;18248;51.522;7.020;2023-04-01T04:06:05;3.63;;;1.90;;
31638;SDS011;18248;51.522;7.020;2023-04-01T04:09:03;5.07;;;2.20;;
31638;SDS011;18248;51.522;7.020;2023-04-01T04:12:02;2.90;;;1.65;;
31638;SDS011;18248;51.522;7.020;2023-04-01T04:15:03;5.07;;;1.98;;
31638;SDS011;18248;51.522;7.020;2023-04-01T04:18:02;5.65;;;2.03;;
31638;SDS011;18248;51.522;7.020;2023-04-01T04:21:01;3.42;;;1.70;;
31638;SDS011;18248;51.522;7.020;2023-04-01T04:24:00;2.50;;;1.40;;
31638;SDS011;18248;51.522;7.020;2023-04-01T04:27:01;3.30;;;1.73;;
31638;SDS011;18248;51.522;7.020;2023-04-01T04:30:00;4.63;;;1.70;;
31638;SDS011;18248;51.522;7.020;2023-04-01T04:32:59;8.43;;;2.28;;
31638;SDS011;18248;51.522;7.020;2023-04-01T04:35:57;3.30;;;1.65;;
31638;SDS011;18248;51.522;7.020;2023-04-01T04:38:56;3.83;;;1.65;;
31638;SDS011;18248;51.522;7.020;2023-04-01T04:41:56;4.43;;;1.65;;
31638;SDS011;18248;51.522;7.020;2023-04-01T04:44:55;4.15;;;1.70;;
31638;SDS011;18248;51.522;7.020;2023-04-01T04:47:54;2.60;;;1.20;;
31638;SDS011;18248;51.522;7.020;2023-04-01T04:50:54;4.90;;;1.60;;
31638;SDS011;18248;51.522;7.020;2023-04-01T04:53:52;6.55;;;2.00;;
31638;SDS011;18248;51.522;7.020;2023-04-01T04:56:51;3.78;;;1.70;;
31638;SDS011;18248;51.522;7.020;2023-04-01T04:59:50;2.97;;;1.88;;
31638;SDS011;18248;51.522;7.020;2023-04-01T05:02:50;4.22;;;2.08;;
31638;SDS011;18248;51.522;7.020;2023-04-01T05:05:50;3.70;;;1.92;;
31638;SDS011;18248;51.522;7.020;2023-04-01T05:08:50;4.43;;;1.95;;
31638;SDS011;18248;51.522;7.020;2023-04-01T05:11:49;3.40;;;2.22;;
31638;SDS011;18248;51.522;7.020;2023-04-01T05:14:47;6.30;;;2.45;;
31638;SDS011;18248;51.522;7.020;2023-04-01T05:17:46;3.50;;;2.08;;
31638;SDS011;18248;51.522;7.020;2023-04-01T05:20:50;3.35;;;2.00;;
31638;SDS011;18248;51.522;7.020;2023-04-01T05:23:50;3.83;;;2.25;;
31638;SDS011;18248;51.522;7.020;2023-04-01T05:26:49;4.75;;;2.50;;
31638;SDS011;18248;51.522;7.020;2023-04-01T05:29:47;3.83;;;1.92;;
31638;SDS011;18248;51.522;7.020;2023-04-01T05:32:46;6.20;;;2.17;;
31638;SDS011;18248;51.522;7.020;2023-04-01T05:35:44;6.68;;;2.15;;
31638;SDS011;18248;51.522;7.020;2023-04-01T05:38:43;7.00;;;2.30;;
31638;SDS011;18248;51.522;7.020;2023-04-01T05:41:43;3.85;;;2.22;;
31638;SDS011;18248;51.522;7.020;2023-04-01T05:44:43;3.63;;;2.20;;
31638;SDS011;18248;51.522;7.020;2023-04-01T05:47:42;4.60;;;2.45;;
31638;SDS011;18248;51.522;7.020;2023-04-01T05:50:41;6.03;;;2.92;;
31638;SDS011;18248;51.522;7.020;2023-04-01T05:53:40;3.47;;;2.80;;
31638;SDS011;18248;51.522;7.020;2023-04-01T05:56:39;4.90;;;3.67;;
31638;SDS011;18248;51.522;7.020;2023-04-01T05:59:37;4.82;;;3.63;;
31638;SDS011;18248;51.522;7.020;2023-04-01T06:02:36;5.78;;;4.05;;
31638;SDS011;18248;51.522;7.020;2023-04-01T06:05:42;4.75;;;4.10;;
31638;SDS011;18248;51.522;7.020;2023-04-01T06:08:42;6.00;;;4.32;;
31638;SDS011;18248;51.522;7.020;2023-04-01T06:15:20;5.32;;;4.40;;
31638;SDS011;18248;51.522;7.020;2023-04-01T06:18:55;6.85;;;4.05;;
31638;SDS011;18248;51.522;7.020;2023-04-01T06:22:13;4.63;;;3.90;;
31638;SDS011;18248;51.522;7.020;2023-04-01T06:25:37;5.95;;;4.20;;
31638;SDS011;18248;51.522;7.020;2023-04-01T06:29:03;6.10;;;3.63;;
31638;SDS011;18248;51.522;7.020;2023-04-01T06:35:56;5.68;;;4.57;;
31638;SDS011;18248;51.522;7.020;2023-04-01T06:46:00;9.07;;;4.93;;
31638;SDS011;18248;51.522;7.020;2023-04-01T06:49:19;7.13;;;5.40;;
31638;SDS011;18248;51.522;7.020;2023-04-01T06:52:45;7.50;;;5.18;;
31638;SDS011;18248;51.522;7.020;2023-04-01T06:56:00;7.43;;;5.30;;
31638;SDS011;18248;51.522;7.020;2023-04-01T07:02:25;11.18;;;5.65;;
31638;SDS011;18248;51.522;7.020;2023-04-01T07:05:32;8.02;;;6.05;;
31638;SDS011;18248;51.522;7.020;2023-04-01T07:08:33;10.27;;;5.57;;
31638;SDS011;18248;51.522;7.020;2023-04-01T07:11:38;8.15;;;5.70;;
31638;SDS011;18248;51.522;7.020;2023-04-01T07:14:39;10.05;;;5.93;;
31638;SDS011;18248;51.522;7.020;2023-04-01T07:17:40;10.60;;;5.68;;
31638;SDS011;18248;51.522;7.020;2023-04-01T07:20:43;9.57;;;5.40;;
31638;SDS011;18248;51.522;7.020;2023-04-01T07:23:45;9.88;;;6.30;;
31638;SDS011;18248;51.522;7.020;2023-04-01T07:26:45;8.57;;;6.05;;
31638;SDS011;18248;51.522;7.020;2023-04-01T07:29:43;9.63;;;5.72;;
31638;SDS011;18248;51.522;7.020;2023-04-01T07:39:21;13.43;;;7.40;;
31638;SDS011;18248;51.522;7.020;2023-04-01T07:51:54;9.75;;;5.45;;
31638;SDS011;18248;51.522;7.020;2023-04-01T08:01:16;9.27;;;4.45;;
31638;SDS011;18248;51.522;7.020;2023-04-01T08:04:36;9.27;;;5.22;;
31638;SDS011;18248;51.522;7.020;2023-04-01T08:14:27;7.70;;;4.85;;
31638;SDS011;18248;51.522;7.020;2023-04-01T08:20:55;7.93;;;5.28;;
31638;SDS011;18248;51.522;7.020;2023-04-01T08:24:00;9.88;;;5.10;;
31638;SDS011;18248;51.522;7.020;2023-04-01T08:27:34;7.68;;;5.10;;
31638;SDS011;18248;51.522;7.020;2023-04-01T08:30:44;9.02;;;5.82;;
31638;SDS011;18248;51.522;7.020;2023-04-01T08:33:44;7.57;;;5.53;;
31638;SDS011;18248;51.522;7.020;2023-04-01T08:36:46;8.50;;;5.57;;
31638;SDS011;18248;51.522;7.020;2023-04-01T08:39:54;10.15;;;6.47;;
31638;SDS011;18248;51.522;7.020;2023-04-01T08:49:56;11.30;;;6.65;;
31638;SDS011;18248;51.522;7.020;2023-04-01T08:57:00;12.65;;;7.85;;
31638;SDS011;18248;51.522;7.020;2023-04-01T09:00:15;11.02;;;8.05;;
31638;SDS011;18248;51.522;7.020;2023-04-01T09:16:58;10.32;;;7.38;;
31638;SDS011;18248;51.522;7.020;2023-04-01T09:20:30;12.40;;;9.07;;
31638;SDS011;18248;51.522;7.020;2023-04-01T09:30:34;17.65;;;9.63;;
31638;SDS011;18248;51.522;7.020;2023-04-01T09:47:27;14.45;;;10.25;;
31638;SDS011;18248;51.522;7.020;2023-04-01T10:17:42;15.68;;;9.93;;
31638;SDS011;18248;51.522;7.020;2023-04-01T10:24:25;13.20;;;8.47;;
31638;SDS011;18248;51.522;7.020;2023-04-01T10:31:08;14.07;;;8.50;;
31638;SDS011;18248;51.522;7.020;2023-04-01T10:34:35;15.65;;;9.10;;
31638;SDS011;18248;51.522;7.020;2023-04-01T11:41:02;18.40;;;11.13;;
31638;SDS011;18248;51.522;7.020;2023-04-01T11:44:28;20.33;;;11.60;;
31638;SDS011;18248;51.522;7.020;2023-04-01T12:11:32;17.88;;;12.35;;
31638;SDS011;18248;51.522;7.020;2023-04-01T12:14:41;22.20;;;13.23;;
31638;SDS011;18248;51.522;7.020;2023-04-01T12:17:55;18.95;;;12.68;;
31638;SDS011;18248;51.522;7.020;2023-04-01T12:33:52;19.25;;;13.23;;
31638;SDS011;18248;51.522;7.020;2023-04-01T13:10:58;13.38;;;8.93;;
31638;SDS011;18248;51.522;7.020;2023-04-01T13:14:54;12.88;;;8.77;;
31638;SDS011;18248;51.522;7.020;2023-04-01T13:18:22;14.45;;;7.93;;
31638;SDS011;18248;51.522;7.020;2023-04-01T13:25:06;14.38;;;6.15;;
31638;SDS011;18248;51.522;7.020;2023-04-01T13:28:28;10.23;;;6.15;;
31638;SDS011;18248;51.522;7.020;2023-04-01T13:34:47;9.45;;;5.93;;
31638;SDS011;18248;51.522;7.020;2023-04-01T13:41:41;9.07;;;5.97;;
31638;SDS011;18248;51.522;7.020;2023-04-01T13:58:43;18.15;;;11.90;;
31638;SDS011;18248;51.522;7.020;2023-04-01T14:09:18;14.13;;;9.30;;
31638;SDS011;18248;51.522;7.020;2023-04-01T14:18:55;15.80;;;11.38;;
31638;SDS011;18248;51.522;7.020;2023-04-01T14:28:30;15.25;;;11.05;;
31638;SDS011;18248;51.522;7.020;2023-04-01T14:31:56;14.73;;;11.05;;
31638;SDS011;18248;51.522;7.020;2023-04-01T14:35:22;14.70;;;10.80;;
31638;SDS011;18248;51.522;7.020;2023-04-01T14:42:29;14.93;;;11.65;;
31638;SDS011;18248;51.522;7.020;2023-04-01T14:49:02;14.68;;;11.93;;
31638;SDS011;18248;51.522;7.020;2023-04-01T14:58:45;19.73;;;14.35;;
31638;SDS011;18248;51.522;7.020;2023-04-01T15:01:47;17.88;;;13.10;;
31638;SDS011;18248;51.522;7.020;2023-04-01T15:11:21;21.30;;;14.90;;
31638;SDS011;18248;51.522;7.020;2023-04-01T15:14:50;21.67;;;15.18;;
31638;SDS011;18248;51.522;7.020;2023-04-01T15:18:12;21.50;;;14.02;;
31638;SDS011;18248;51.522;7.020;2023-04-01T15:24:39;22.25;;;16.00;;
31638;SDS011;18248;51.522;7.020;2023-04-01T15:31:20;21.48;;;14.63;;
31638;SDS011;18248;51.522;7.020;2023-04-01T15:34:32;21.10;;;13.82;;
31638;SDS011;18248;51.522;7.020;2023-04-01T15:41:02;16.42;;;11.82;;
31638;SDS011;18248;51.522;7.020;2023-04-01T15:44:02;23.85;;;12.38;;
31638;SDS011;18248;51.522;7.020;2023-04-01T15:47:01;17.90;;;13.48;;
31638;SDS011;18248;51.522;7.020;2023-04-01T16:00:18;19.00;;;13.27;;
31638;SDS011;18248;51.522;7.020;2023-04-01T16:10:08;13.77;;;10.18;;
31638;SDS011;18248;51.522;7.020;2023-04-01T16:20:23;14.30;;;8.40;;
31638;SDS011;18248;51.522;7.020;2023-04-01T16:24:00;13.20;;;9.80;;
31638;SDS011;18248;51.522;7.020;2023-04-01T16:27:14;14.02;;;9.32;;
31638;SDS011;18248;51.522;7.020;2023-04-01T16:33:52;12.75;;;9.10;;
31638;SDS011;18248;51.522;7.020;2023-04-01T16:40:46;11.10;;;8.00;;
31638;SDS011;18248;51.522;7.020;2023-04-01T16:43:48;10.63;;;8.43;;
31638;SDS011;18248;51.522;7.020;2023-04-01T16:47:05;13.85;;;8.93;;
31638;SDS011;18248;51.522;7.020;2023-04-01T16:50:21;12.98;;;8.55;;
31638;SDS011;18248;51.522;7.020;2023-04-01T16:53:25;11.32;;;8.00;;
31638;SDS011;18248;51.522;7.020;2023-04-01T16:56:56;11.98;;;8.20;;
31638;SDS011;18248;51.522;7.020;2023-04-01T17:03:43;10.82;;;7.88;;
31638;SDS011;18248;51.522;7.020;2023-04-01T17:06:52;12.25;;;7.97;;
31638;SDS011;18248;51.522;7.020;2023-04-01T17:13:26;13.73;;;8.98;;
31638;SDS011;18248;51.522;7.020;2023-04-01T17:26:34;12.30;;;8.40;;
31638;SDS011;18248;51.522;7.020;2023-04-01T17:30:02;13.25;;;9.45;;
31638;SDS011;18248;51.522;7.020;2023-04-01T17:47:27;13.38;;;9.30;;
31638;SDS011;18248;51.522;7.020;2023-04-01T18:00:37;16.85;;;11.75;;
31638;SDS011;18248;51.522;7.020;2023-04-01T18:10:56;17.98;;;11.70;;
31638;SDS011;18248;51.522;7.020;2023-04-01T18:23:59;22.67;;;13.32;;
31638;SDS011;18248;51.522;7.020;2023-04-01T18:30:31;21.85;;;13.48;;
31638;SDS011;18248;51.522;7.020;2023-04-01T18:33:34;22.80;;;14.02;;
31638;SDS011;18248;51.522;7.020;2023-04-01T18:36:43;19.38;;;12.38;;
31638;SDS011;18248;51.522;7.020;2023-04-01T18:39:49;21.70;;;14.10;;
31638;SDS011;18248;51.522;7.020;2023-04-01T18:42:58;17.88;;;12.05;;
31638;SDS011;18248;51.522;7.020;2023-04-01T18:46:17;20.20;;;11.43;;
31638;SDS011;18248;51.522;7.020;2023-04-01T18:49:27;15.02;;;10.90;;
31638;SDS011;18248;51.522;7.020;2023-04-01T18:52:43;16.48;;;10.48;;
31638;SDS011;18248;51.522;7.020;2023-04-01T18:55:49;14.38;;;10.40;;
31638;SDS011;18248;51.522;7.020;2023-04-01T19:02:32;10.82;;;8.35;;
31638;SDS011;18248;51.522;7.020;2023-04-01T19:05:39;9.10;;;6.45;;
31638;SDS011;18248;51.522;7.020;2023-04-01T19:08:40;8.15;;;5.60;;
31638;SDS011;18248;51.522;7.020;2023-04-01T19:11:45;6.18;;;4.10;;
31638;SDS011;18248;51.522;7.020;2023-04-01T19:21:47;6.35;;;2.65;;
31638;SDS011;18248;51.522;7.020;2023-04-01T19:41:28;2.65;;;2.20;;
31638;SDS011;18248;51.522;7.020;2023-04-01T19:44:47;8.98;;;2.40;;
31638;SDS011;18248;51.522;7.020;2023-04-01T19:48:17;5.38;;;2.20;;
31638;SDS011;18248;51.522;7.020;2023-04-01T19:51:31;3.40;;;2.40;;
31638;SDS011;18248;51.522;7.020;2023-04-01T19:54:58;2.15;;;1.75;;
31638;SDS011;18248;51.522;7.020;2023-04-01T20:01:20;1.92;;;1.77;;
31638;SDS011;18248;51.522;7.020;2023-04-01T20:04:37;3.03;;;2.40;;
31638;SDS011;18248;51.522;7.020;2023-04-01T20:07:52;2.47;;;2.20;;
31638;SDS011;18248;51.522;7.020;2023-04-01T20:11:06;2.75;;;2.30;;
31638;SDS011;18248;51.522;7.020;2023-04-01T20:14:22;3.13;;;2.22;;
31638;SDS011;18248;51.522;7.020;2023-04-01T20:17:46;3.30;;;2.40;;
31638;SDS011;18248;51.522;7.020;2023-04-01T20:20:53;3.05;;;2.40;;
31638;SDS011;18248;51.522;7.020;2023-04-01T20:24:16;2.60;;;2.40;;
31638;SDS011;18248;51.522;7.020;2023-04-01T20:27:44;3.10;;;2.80;;
31638;SDS011;18248;51.522;7.020;2023-04-01T20:34:13;2.75;;;2.40;;
31638;SDS011;18248;51.522;7.020;2023-04-01T20:51:03;3.20;;;2.15;;
31638;SDS011;18248;51.522;7.020;2023-04-01T20:57:34;1.80;;;1.60;;
31638;SDS011;18248;51.522;7.020;2023-04-01T21:00:39;2.80;;;1.63;;
31638;SDS011;18248;51.522;7.020;2023-04-01T21:04:18;2.90;;;1.85;;
31638;SDS011;18248;51.522;7.020;2023-04-01T21:07:33;2.85;;;1.77;;
31638;SDS011;18248;51.522;7.020;2023-04-01T21:21:26;3.42;;;1.95;;
31638;SDS011;18248;51.522;7.020;2023-04-01T21:31:22;4.65;;;2.90;;
31638;SDS011;18248;51.522;7.020;2023-04-01T21:34:45;2.42;;;2.15;;
31638;SDS011;18248;51.522;7.020;2023-04-01T21:47:38;3.05;;;2.70;;
31638;SDS011;18248;51.522;7.020;2023-04-01T22:01:42;5.38;;;3.55;;
31638;SDS011;18248;51.522;7.020;2023-04-01T22:08:31;4.90;;;3.33;;
31638;SDS011;18248;51.522;7.020;2023-04-01T22:15:16;5.00;;;3.83;;
31638;SDS011;18248;51.522;7.020;2023-04-01T22:18:31;4.40;;;3.60;;
31638;SDS011;18248;51.522;7.020;2023-04-01T22:21:44;5.35;;;3.28;;
31638;SDS011;18248;51.522;7.020;2023-04-01T22:25:14;6.60;;;3.88;;
31638;SDS011;18248;51.522;7.020;2023-04-01T22:28:22;4.47;;;3.30;;
31638;SDS011;18248;51.522;7.020;2023-04-01T22:31:28;3.92;;;3.15;;
31638;SDS011;18248;51.522;7.020;2023-04-01T22:48:08;7.38;;;3.50;;
31638;SDS011;18248;51.522;7.020;2023-04-01T22:51:18;4.95;;;4.45;;
31638;SDS011;18248;51.522;7.020;2023-04-01T23:00:35;8.02;;;6.28;;
31638;SDS011;18248;51.522;7.020;2023-04-01T23:03:39;5.53;;;4.95;;
31638;SDS011;18248;51.522;7.020;2023-04-01T23:06:39;6.30;;;4.47;;
31638;SDS011;18248;51.522;7.020;2023-04-01T23:09:42;8.05;;;5.07;;
31638;SDS011;18248;51.522;7.020;2023-04-01T23:12:41;5.82;;;5.10;;
31638;SDS011;18248;51.522;7.020;2023-04-01T23:15:40;6.28;;;5.13;;
31638;SDS011;18248;51.522;7.020;2023-04-01T23:18:49;7.50;;;5.55;;
31638;SDS011;18248;51.522;7.020;2023-04-01T23:22:21;6.35;;;5.28;;
31638;SDS011;18248;51.522;7.020;2023-04-01T23:25:45;6.60;;;5.10;;
31638;SDS011;18248;51.522;7.020;2023-04-01T23:29:04;7.07;;;4.05;;
31638;SDS011;18248;51.522;7.020;2023-04-01T23:32:18;5.55;;;4.40;;
31638;SDS011;18248;51.522;7.020;2023-04-01T23:35:20;11.73;;;4.63;;
31638;SDS011;18248;51.522;7.020;2023-04-01T23:38:19;5.68;;;3.83;;
31638;SDS011;18248;51.522;7.020;2023-04-01T23:41:24;9.30;;;4.70;;
31638;SDS011;18248;51.522;7.020;2023-04-01T23:44:27;5.47;;;3.65;;
31638;SDS011;18248;51.522;7.020;2023-04-01T23:47:29;6.28;;;4.30;;
31638;SDS011;18248;51.522;7.020;2023-04-01T23:50:30;4.13;;;3.58;;
31638;SDS011;18248;51.522;7.020;2023-04-01T23:53:32;4.82;;;4.15;;
31638;SDS011;18248;51.522;7.020;2023-04-01T23:56:34;6.55;;;4.40;;
31638;SDS011;18248;51.522;7.020;2023-04-01T23:59:38;7.47;;;4.97;;
